createdAt,value
2022-11-24T00:02:46.635Z,1.13
2022-11-24T00:07:49.491Z,2.10
2022-11-24T00:12:52.302Z,3.15
2022-11-24T00:17:55.000Z,1.83
2022-11-24T00:22:57.835Z,2.50
2022-11-24T00:28:00.595Z,2.78
2022-11-24T00:33:03.335Z,2.08
2022-11-24T00:38:06.115Z,2.75
2022-11-24T00:43:08.879Z,2.80
2022-11-24T00:48:11.657Z,2.33
2022-11-24T00:53:14.436Z,1.80
2022-11-24T00:58:17.170Z,3.17
2022-11-24T01:03:21.435Z,2.90
2022-11-24T01:08:24.125Z,2.08
2022-11-24T01:13:26.842Z,1.30
2022-11-24T01:18:29.650Z,1.80
2022-11-24T01:23:32.694Z,3.30
2022-11-24T01:28:35.946Z,1.85
2022-11-24T01:33:39.288Z,4.00
2022-11-24T01:38:42.124Z,4.72
2022-11-24T01:43:45.494Z,3.10
2022-11-24T01:49:43.920Z,2.15
2022-11-24T01:54:52.476Z,1.70
2022-11-24T02:00:07.634Z,2.65
2022-11-24T02:05:29.213Z,3.05
2022-11-24T02:10:32.140Z,3.08
2022-11-24T02:15:35.286Z,3.55
2022-11-24T02:20:38.492Z,3.17
2022-11-24T02:26:01.388Z,3.67
2022-11-24T02:31:05.368Z,4.70
2022-11-24T02:36:08.378Z,3.97
2022-11-24T02:41:16.981Z,2.50
2022-11-24T02:46:19.827Z,4.38
2022-11-24T02:51:23.400Z,4.40
2022-11-24T02:56:26.857Z,3.22
2022-11-24T03:01:29.601Z,3.53
2022-11-24T03:06:32.403Z,2.85
2022-11-24T03:11:35.137Z,4.28
2022-11-24T03:16:38.066Z,3.53
2022-11-24T03:21:40.760Z,4.32
2022-11-24T03:26:43.502Z,1.60
2022-11-24T03:31:46.491Z,2.70
2022-11-24T03:36:49.177Z,3.72
2022-11-24T03:41:52.128Z,3.60
2022-11-24T03:46:54.899Z,4.15
2022-11-24T03:51:57.734Z,2.92
2022-11-24T03:57:00.608Z,2.60
2022-11-24T04:02:03.420Z,3.10
2022-11-24T04:07:06.330Z,2.88
2022-11-24T04:12:28.249Z,2.45
2022-11-24T04:17:30.928Z,2.70
2022-11-24T04:22:33.663Z,2.97
2022-11-24T04:27:37.607Z,2.70
2022-11-24T04:32:46.654Z,3.35
2022-11-24T04:37:49.451Z,2.95
2022-11-24T04:42:55.966Z,2.15
2022-11-24T04:47:58.861Z,2.00
2022-11-24T04:53:01.594Z,3.53
2022-11-24T04:58:04.503Z,3.60
2022-11-24T05:03:07.320Z,2.90
2022-11-24T05:08:09.947Z,3.53
2022-11-24T05:13:13.830Z,3.58
2022-11-24T05:18:16.970Z,3.45
2022-11-24T05:23:19.889Z,3.72
2022-11-24T05:28:22.593Z,4.05
2022-11-24T05:33:25.344Z,2.63
2022-11-24T05:38:28.012Z,2.78
2022-11-24T05:43:30.795Z,4.97
2022-11-24T05:48:33.450Z,2.70
2022-11-24T05:53:36.222Z,2.67
2022-11-24T05:58:39.032Z,4.05
2022-11-24T06:03:42.169Z,3.20
2022-11-24T06:08:44.929Z,3.20
2022-11-24T06:13:49.066Z,3.50
2022-11-24T06:18:53.312Z,2.28
2022-11-24T06:23:55.961Z,3.47
2022-11-24T06:28:58.744Z,3.10
2022-11-24T06:34:01.727Z,1.98
2022-11-24T06:39:05.386Z,3.70
2022-11-24T06:44:08.528Z,4.03
2022-11-24T06:49:11.630Z,4.43
2022-11-24T06:54:18.853Z,4.38
2022-11-24T06:59:21.933Z,2.42
2022-11-24T07:04:24.605Z,3.60
2022-11-24T07:09:27.299Z,3.55
2022-11-24T07:14:29.922Z,1.77
2022-11-24T07:19:32.654Z,5.40
2022-11-24T07:24:35.471Z,2.75
2022-11-24T07:29:38.322Z,5.50
2022-11-24T07:34:41.004Z,6.18
2022-11-24T07:39:43.746Z,5.80
2022-11-24T07:44:46.467Z,4.57
2022-11-24T07:49:49.182Z,4.75
2022-11-24T07:54:51.810Z,5.20
2022-11-24T07:59:54.531Z,6.60
2022-11-24T08:04:57.274Z,4.88
2022-11-24T08:09:59.993Z,4.88
2022-11-24T08:15:06.514Z,5.63
2022-11-24T08:20:12.461Z,5.28
2022-11-24T08:25:15.694Z,5.88
2022-11-24T08:30:18.407Z,5.32
2022-11-24T08:35:21.515Z,2.13
2022-11-24T08:40:24.530Z,5.10
2022-11-24T08:45:30.668Z,4.60
2022-11-24T08:50:35.916Z,6.22
2022-11-24T08:55:38.856Z,4.93
2022-11-24T09:00:41.528Z,6.65
2022-11-24T09:05:51.651Z,3.38
2022-11-24T09:11:00.288Z,4.22
2022-11-24T09:16:10.825Z,5.55
2022-11-24T09:21:16.391Z,5.75
2022-11-24T09:26:22.198Z,2.85
2022-11-24T09:31:27.173Z,5.80
2022-11-24T09:36:30.003Z,4.90
2022-11-24T09:41:40.452Z,4.32
2022-11-24T09:47:07.071Z,5.53
2022-11-24T09:52:13.220Z,3.10
2022-11-24T09:57:16.553Z,6.43
2022-11-24T10:02:19.383Z,4.70
2022-11-24T10:07:28.415Z,3.30
2022-11-24T10:12:49.961Z,5.95
2022-11-24T10:18:16.193Z,6.53
2022-11-24T10:23:49.582Z,5.35
2022-11-24T10:28:55.547Z,5.35
2022-11-24T10:34:02.595Z,6.95
2022-11-24T10:39:25.199Z,3.28
2022-11-24T10:44:27.849Z,3.67
2022-11-24T10:54:37.225Z,4.60
2022-11-24T10:59:40.928Z,6.55
2022-11-24T11:04:43.978Z,3.70
2022-11-24T11:09:47.836Z,1.65
2022-11-24T11:14:51.080Z,5.70
2022-11-24T11:20:02.010Z,5.93
2022-11-24T11:25:11.528Z,5.22
2022-11-24T11:35:44.146Z,6.50
2022-11-24T11:40:50.259Z,5.47
2022-11-24T11:46:13.757Z,6.30
2022-11-24T11:52:01.338Z,5.18
2022-11-24T11:57:30.398Z,5.55
2022-11-24T12:02:53.141Z,5.50
2022-11-24T12:08:43.931Z,6.25
2022-11-24T12:14:12.614Z,5.85
2022-11-24T12:19:40.034Z,5.03
2022-11-24T12:24:45.480Z,4.93
2022-11-24T12:30:10.379Z,5.78
2022-11-24T12:35:23.826Z,7.68
2022-11-24T12:40:32.607Z,6.13
2022-11-24T12:45:43.764Z,6.72
2022-11-24T12:50:46.890Z,8.45
2022-11-24T12:55:49.617Z,6.75
2022-11-24T13:01:15.981Z,6.55
2022-11-24T13:06:25.340Z,5.13
2022-11-24T13:11:41.092Z,5.53
2022-11-24T13:17:21.864Z,5.65
2022-11-24T13:22:25.525Z,5.30
2022-11-24T13:27:32.470Z,5.90
2022-11-24T13:32:35.128Z,8.68
2022-11-24T13:42:55.517Z,6.68
2022-11-24T13:47:58.953Z,6.47
2022-11-24T13:53:09.023Z,7.68
2022-11-24T13:58:14.764Z,6.60
2022-11-24T14:04:28.701Z,5.82
2022-11-24T14:09:25.617Z,5.70
2022-11-24T14:14:28.372Z,6.78
2022-11-24T14:19:32.371Z,6.05
2022-11-24T14:24:39.715Z,6.80
2022-11-24T14:30:01.444Z,8.38
2022-11-24T14:35:30.150Z,6.95
2022-11-24T14:40:45.730Z,7.47
2022-11-24T14:45:51.955Z,6.60
2022-11-24T14:51:05.364Z,6.05
2022-11-24T14:56:09.430Z,5.43
2022-11-24T15:01:28.415Z,4.22
2022-11-24T15:06:31.187Z,5.68
2022-11-24T15:11:34.815Z,4.95
2022-11-24T15:16:40.550Z,4.85
2022-11-24T15:21:43.359Z,6.93
2022-11-24T15:26:46.527Z,5.18
2022-11-24T15:31:52.656Z,6.50
2022-11-24T15:36:55.934Z,4.57
2022-11-24T15:52:03.691Z,5.95
2022-11-24T16:07:15.222Z,5.40
2022-11-24T16:12:18.042Z,3.03
2022-11-24T16:17:20.679Z,5.00
2022-11-24T16:22:23.330Z,3.10
2022-11-24T16:27:26.029Z,5.03
2022-11-24T16:37:32.462Z,7.15
2022-11-24T16:42:35.338Z,5.10
2022-11-24T16:47:42.053Z,6.72
2022-11-24T16:52:44.805Z,5.47
2022-11-24T17:02:51.829Z,6.35
2022-11-24T17:07:54.666Z,6.70
2022-11-24T17:12:57.480Z,7.70
2022-11-24T17:23:22.659Z,3.92
2022-11-24T17:33:28.733Z,5.28
2022-11-24T17:38:31.574Z,5.78
2022-11-24T17:53:41.067Z,4.55
2022-11-24T17:58:44.157Z,6.15
2022-11-24T18:03:50.480Z,3.47
2022-11-24T18:08:58.992Z,7.28
2022-11-24T18:14:03.757Z,3.47
2022-11-24T18:19:11.233Z,6.05
2022-11-24T18:24:17.502Z,7.05
2022-11-24T18:29:23.732Z,5.90
2022-11-24T18:34:26.381Z,7.22
2022-11-24T18:39:30.138Z,6.05
2022-11-24T18:44:33.302Z,6.13
2022-11-24T18:49:36.271Z,4.90
2022-11-24T18:54:39.143Z,6.18
2022-11-24T19:04:44.316Z,4.75
2022-11-24T19:09:47.194Z,6.28
2022-11-24T19:14:49.854Z,5.63
2022-11-24T19:19:52.809Z,6.22
2022-11-24T19:29:57.891Z,4.32
2022-11-24T19:35:00.742Z,3.45
2022-11-24T19:40:04.393Z,6.07
2022-11-24T19:45:07.920Z,5.55
2022-11-24T19:50:11.631Z,5.40
2022-11-24T19:55:14.378Z,4.35
2022-11-24T20:00:17.927Z,3.92
2022-11-24T20:05:20.584Z,6.78
2022-11-24T20:10:23.572Z,8.07
2022-11-24T20:15:26.454Z,8.20
2022-11-24T20:20:29.136Z,3.45
2022-11-24T20:25:31.810Z,8.75
2022-11-24T20:30:34.525Z,6.60
2022-11-24T20:35:37.219Z,8.02
2022-11-24T20:40:39.865Z,5.50
2022-11-24T20:56:06.240Z,6.00
2022-11-24T21:01:20.563Z,5.68
2022-11-24T21:06:23.915Z,6.97
2022-11-24T21:11:26.883Z,6.53
2022-11-24T21:21:36.107Z,7.85
2022-11-24T21:26:39.743Z,8.90
2022-11-24T21:31:42.469Z,6.30
2022-11-24T21:36:45.472Z,4.43
2022-11-24T21:41:48.496Z,7.07
2022-11-24T21:46:55.940Z,5.47
2022-11-24T21:51:58.972Z,6.80
2022-11-24T21:57:01.579Z,7.70
2022-11-24T22:02:06.723Z,6.95
2022-11-24T22:07:13.369Z,5.22
2022-11-24T22:12:16.459Z,6.10
2022-11-24T22:17:19.150Z,5.47
2022-11-24T22:22:21.946Z,5.78
2022-11-24T22:27:24.596Z,4.65
2022-11-24T22:32:27.347Z,6.75
2022-11-24T22:37:29.989Z,5.93
2022-11-24T22:42:32.647Z,4.43
2022-11-24T22:47:35.407Z,5.13
2022-11-24T22:52:39.130Z,8.02
2022-11-24T22:57:44.899Z,5.57
2022-11-24T23:02:50.765Z,4.45
2022-11-24T23:07:53.501Z,4.57
2022-11-24T23:12:56.299Z,5.93
2022-11-24T23:17:58.956Z,5.45
2022-11-24T23:23:01.580Z,6.53
2022-11-24T23:28:04.391Z,5.35
2022-11-24T23:33:07.076Z,5.32
2022-11-24T23:38:09.732Z,4.90
2022-11-24T23:43:12.469Z,6.35
2022-11-24T23:53:17.841Z,6.43
2022-11-24T23:58:20.731Z,4.55
